首页
METAR-TAF:

METAR-TAF

机场 :

倫敦希斯路機場, 英格兰

纬度: 51-29N, 经度: 000-27W, 海拔: 24米

当前天气观测

该预报发布于17分钟前的11:20 UTC
风速8节,风向北转西北,在西转西北之间变化
温度 19°C
湿度 43%
气压 1027 hPa
能见度10公里或以上
散云层高于4600英尺

METAR: EGLL 111120Z AUTO 33008KT 290V360 9999 SCT046 19/06 Q1027 NOSIG

时间: 12:37 (11:37 UTC)

预报

该预报发布于6小时和44分钟前的04:53 UTC
预报有效从11日的 06点(UTC)到 12日的 12点(UTC)
风速8节,风向西北
能见度10公里或以上
少量云层高于4500英尺
几率 40%
从 12日的 01点(UTC)到 12日的 08点(UTC)
能見度: 7000

TAF: EGLL 110453Z 1106/1212 31008KT 9999 FEW045 PROB40 1201/1208 7000

超过4000个机场的气象观测和天气预报(METAR&TAF报告)。

可查询的气象台以黄色和红色小点在地图上表示。

将鼠标移到小点上方,可查看气象台名称。

然后点击查看天气观测和预报。

如需切换地图:点击带黑十字的绿色按钮放大地图;点击带横线的绿色按钮缩小地图;或者点击绿色箭头查看邻近地区的地图。


METAR-TAF: